sensor_id;sensor_type;location;lat;lon;timestamp;P1;durP1;ratioP1;P2;durP2;ratioP2
42666;SDS011;28280;49.646;14.130;2022-11-03T00:03:33;6.22;;;2.55;;
42666;SDS011;28280;49.646;14.130;2022-11-03T00:09:05;5.07;;;2.50;;
42666;SDS011;28280;49.646;14.130;2022-11-03T00:14:38;5.85;;;2.42;;
42666;SDS011;28280;49.646;14.130;2022-11-03T00:20:09;4.20;;;2.47;;
42666;SDS011;28280;49.646;14.130;2022-11-03T00:25:40;3.90;;;2.10;;
42666;SDS011;28280;49.646;14.130;2022-11-03T00:31:13;6.20;;;2.42;;
42666;SDS011;28280;49.646;14.130;2022-11-03T00:36:49;5.05;;;2.40;;
42666;SDS011;28280;49.646;14.130;2022-11-03T00:42:20;4.15;;;2.10;;
42666;SDS011;28280;49.646;14.130;2022-11-03T00:47:54;5.85;;;2.10;;
42666;SDS011;28280;49.646;14.130;2022-11-03T00:53:45;3.75;;;2.17;;
42666;SDS011;28280;49.646;14.130;2022-11-03T00:59:16;4.57;;;2.40;;
42666;SDS011;28280;49.646;14.130;2022-11-03T01:04:48;4.70;;;2.63;;
42666;SDS011;28280;49.646;14.130;2022-11-03T01:10:51;4.13;;;2.47;;
42666;SDS011;28280;49.646;14.130;2022-11-03T01:16:41;4.35;;;2.47;;
42666;SDS011;28280;49.646;14.130;2022-11-03T01:22:13;6.00;;;2.53;;
42666;SDS011;28280;49.646;14.130;2022-11-03T01:27:45;3.88;;;2.20;;
42666;SDS011;28280;49.646;14.130;2022-11-03T01:33:17;3.97;;;2.40;;
42666;SDS011;28280;49.646;14.130;2022-11-03T01:38:48;6.22;;;2.70;;
42666;SDS011;28280;49.646;14.130;2022-11-03T01:49:55;4.25;;;2.65;;
42666;SDS011;28280;49.646;14.130;2022-11-03T01:55:34;4.70;;;2.63;;
42666;SDS011;28280;49.646;14.130;2022-11-03T02:01:09;6.00;;;2.78;;
42666;SDS011;28280;49.646;14.130;2022-11-03T02:06:41;4.20;;;2.30;;
42666;SDS011;28280;49.646;14.130;2022-11-03T02:12:12;4.13;;;2.50;;
42666;SDS011;28280;49.646;14.130;2022-11-03T02:17:45;4.75;;;2.42;;
42666;SDS011;28280;49.646;14.130;2022-11-03T02:23:37;6.63;;;2.50;;
42666;SDS011;28280;49.646;14.130;2022-11-03T02:29:11;3.90;;;2.47;;
42666;SDS011;28280;49.646;14.130;2022-11-03T02:40:28;5.13;;;2.55;;
42666;SDS011;28280;49.646;14.130;2022-11-03T02:46:02;4.75;;;2.40;;
42666;SDS011;28280;49.646;14.130;2022-11-03T02:51:34;3.95;;;2.30;;
42666;SDS011;28280;49.646;14.130;2022-11-03T02:57:10;4.25;;;2.70;;
42666;SDS011;28280;49.646;14.130;2022-11-03T03:08:24;4.68;;;2.60;;
42666;SDS011;28280;49.646;14.130;2022-11-03T03:13:56;5.38;;;2.30;;
42666;SDS011;28280;49.646;14.130;2022-11-03T03:25:13;3.95;;;2.47;;
42666;SDS011;28280;49.646;14.130;2022-11-03T03:30:52;6.22;;;3.38;;
42666;SDS011;28280;49.646;14.130;2022-11-03T03:41:56;4.32;;;2.30;;
42666;SDS011;28280;49.646;14.130;2022-11-03T03:47:29;3.88;;;2.45;;
42666;SDS011;28280;49.646;14.130;2022-11-03T03:53:03;5.72;;;2.55;;
42666;SDS011;28280;49.646;14.130;2022-11-03T03:58:36;4.13;;;2.47;;
42666;SDS011;28280;49.646;14.130;2022-11-03T04:04:07;5.28;;;2.78;;
42666;SDS011;28280;49.646;14.130;2022-11-03T04:09:38;4.60;;;2.95;;
42666;SDS011;28280;49.646;14.130;2022-11-03T04:15:10;4.97;;;2.55;;
42666;SDS011;28280;49.646;14.130;2022-11-03T04:21:01;4.15;;;2.85;;
42666;SDS011;28280;49.646;14.130;2022-11-03T04:26:51;4.28;;;2.78;;
42666;SDS011;28280;49.646;14.130;2022-11-03T04:32:23;6.38;;;3.13;;
42666;SDS011;28280;49.646;14.130;2022-11-03T04:38:08;5.90;;;3.00;;
42666;SDS011;28280;49.646;14.130;2022-11-03T04:43:46;4.72;;;3.10;;
42666;SDS011;28280;49.646;14.130;2022-11-03T04:49:21;5.10;;;3.35;;
42666;SDS011;28280;49.646;14.130;2022-11-03T04:54:52;5.05;;;2.72;;
42666;SDS011;28280;49.646;14.130;2022-11-03T05:00:24;4.55;;;3.20;;
42666;SDS011;28280;49.646;14.130;2022-11-03T05:05:55;4.88;;;2.88;;
42666;SDS011;28280;49.646;14.130;2022-11-03T05:17:02;3.55;;;2.63;;
42666;SDS011;28280;49.646;14.130;2022-11-03T05:22:44;3.50;;;2.58;;
42666;SDS011;28280;49.646;14.130;2022-11-03T05:28:20;4.05;;;2.72;;
42666;SDS011;28280;49.646;14.130;2022-11-03T05:33:56;4.50;;;2.97;;
42666;SDS011;28280;49.646;14.130;2022-11-03T05:39:30;4.05;;;2.90;;
42666;SDS011;28280;49.646;14.130;2022-11-03T05:45:11;4.57;;;2.88;;
42666;SDS011;28280;49.646;14.130;2022-11-03T05:50:51;3.53;;;2.50;;
42666;SDS011;28280;49.646;14.130;2022-11-03T05:56:23;4.00;;;2.92;;
42666;SDS011;28280;49.646;14.130;2022-11-03T06:01:54;4.07;;;2.65;;
42666;SDS011;28280;49.646;14.130;2022-11-03T06:07:29;3.75;;;2.70;;
42666;SDS011;28280;49.646;14.130;2022-11-03T06:13:03;4.45;;;2.97;;
42666;SDS011;28280;49.646;14.130;2022-11-03T06:18:41;3.20;;;2.33;;
42666;SDS011;28280;49.646;14.130;2022-11-03T06:24:13;4.00;;;2.63;;
42666;SDS011;28280;49.646;14.130;2022-11-03T06:29:55;4.05;;;2.50;;
42666;SDS011;28280;49.646;14.130;2022-11-03T06:35:31;3.55;;;2.58;;
42666;SDS011;28280;49.646;14.130;2022-11-03T06:41:06;4.38;;;2.55;;
42666;SDS011;28280;49.646;14.130;2022-11-03T06:46:47;2.58;;;2.15;;
42666;SDS011;28280;49.646;14.130;2022-11-03T06:58:15;3.00;;;2.35;;
42666;SDS011;28280;49.646;14.130;2022-11-03T07:03:55;3.75;;;2.40;;
42666;SDS011;28280;49.646;14.130;2022-11-03T07:09:28;3.90;;;2.47;;
42666;SDS011;28280;49.646;14.130;2022-11-03T07:14:59;3.55;;;2.42;;
42666;SDS011;28280;49.646;14.130;2022-11-03T07:20:31;3.50;;;2.35;;
42666;SDS011;28280;49.646;14.130;2022-11-03T07:26:02;2.92;;;2.15;;
42666;SDS011;28280;49.646;14.130;2022-11-03T07:31:33;2.97;;;2.20;;
42666;SDS011;28280;49.646;14.130;2022-11-03T07:37:04;3.05;;;2.35;;
42666;SDS011;28280;49.646;14.130;2022-11-03T07:42:37;2.97;;;2.07;;
42666;SDS011;28280;49.646;14.130;2022-11-03T07:48:13;3.05;;;2.20;;
42666;SDS011;28280;49.646;14.130;2022-11-03T07:53:49;2.58;;;2.17;;
42666;SDS011;28280;49.646;14.130;2022-11-03T07:59:24;3.03;;;1.95;;
42666;SDS011;28280;49.646;14.130;2022-11-03T08:04:57;3.17;;;2.28;;
42666;SDS011;28280;49.646;14.130;2022-11-03T08:10:29;2.38;;;2.05;;
42666;SDS011;28280;49.646;14.130;2022-11-03T08:16:00;2.40;;;1.88;;
42666;SDS011;28280;49.646;14.130;2022-11-03T08:21:31;2.78;;;2.08;;
42666;SDS011;28280;49.646;14.130;2022-11-03T08:27:02;3.10;;;2.13;;
42666;SDS011;28280;49.646;14.130;2022-11-03T08:32:35;3.38;;;2.22;;
42666;SDS011;28280;49.646;14.130;2022-11-03T08:38:06;3.38;;;2.47;;
42666;SDS011;28280;49.646;14.130;2022-11-03T08:43:38;3.40;;;2.35;;
42666;SDS011;28280;49.646;14.130;2022-11-03T08:49:10;3.30;;;2.45;;
42666;SDS011;28280;49.646;14.130;2022-11-03T08:54:41;3.15;;;2.20;;
42666;SDS011;28280;49.646;14.130;2022-11-03T09:00:13;2.78;;;2.38;;
42666;SDS011;28280;49.646;14.130;2022-11-03T09:11:17;3.50;;;2.50;;
42666;SDS011;28280;49.646;14.130;2022-11-03T09:16:48;3.15;;;2.58;;
42666;SDS011;28280;49.646;14.130;2022-11-03T09:22:20;4.15;;;2.42;;
42666;SDS011;28280;49.646;14.130;2022-11-03T09:27:52;3.67;;;2.67;;
42666;SDS011;28280;49.646;14.130;2022-11-03T09:33:23;3.10;;;2.60;;
42666;SDS011;28280;49.646;14.130;2022-11-03T09:38:54;4.03;;;3.00;;
42666;SDS011;28280;49.646;14.130;2022-11-03T09:44:26;3.22;;;2.50;;
42666;SDS011;28280;49.646;14.130;2022-11-03T09:49:58;3.70;;;2.60;;
42666;SDS011;28280;49.646;14.130;2022-11-03T09:55:29;2.95;;;2.45;;
42666;SDS011;28280;49.646;14.130;2022-11-03T10:01:02;3.65;;;2.80;;
42666;SDS011;28280;49.646;14.130;2022-11-03T10:06:34;3.75;;;2.15;;
42666;SDS011;28280;49.646;14.130;2022-11-03T10:12:05;3.92;;;2.50;;
42666;SDS011;28280;49.646;14.130;2022-11-03T10:23:10;3.03;;;2.30;;
42666;SDS011;28280;49.646;14.130;2022-11-03T10:28:55;3.55;;;2.30;;
42666;SDS011;28280;49.646;14.130;2022-11-03T10:40:09;3.53;;;2.33;;
42666;SDS011;28280;49.646;14.130;2022-11-03T10:46:19;5.00;;;2.58;;
42666;SDS011;28280;49.646;14.130;2022-11-03T10:52:17;5.00;;;2.27;;
42666;SDS011;28280;49.646;14.130;2022-11-03T10:57:53;3.58;;;2.40;;
42666;SDS011;28280;49.646;14.130;2022-11-03T11:03:25;3.40;;;2.15;;
42666;SDS011;28280;49.646;14.130;2022-11-03T11:09:00;5.20;;;2.33;;
42666;SDS011;28280;49.646;14.130;2022-11-03T11:14:36;4.32;;;2.38;;
42666;SDS011;28280;49.646;14.130;2022-11-03T11:20:17;5.45;;;2.50;;
42666;SDS011;28280;49.646;14.130;2022-11-03T11:31:44;4.13;;;2.20;;
42666;SDS011;28280;49.646;14.130;2022-11-03T11:48:34;2.83;;;2.00;;
42666;SDS011;28280;49.646;14.130;2022-11-03T11:54:06;3.50;;;2.17;;
42666;SDS011;28280;49.646;14.130;2022-11-03T11:59:48;5.10;;;2.50;;
42666;SDS011;28280;49.646;14.130;2022-11-03T12:05:24;5.00;;;2.20;;
42666;SDS011;28280;49.646;14.130;2022-11-03T12:11:01;3.58;;;2.15;;
42666;SDS011;28280;49.646;14.130;2022-11-03T12:16:34;6.28;;;2.70;;
42666;SDS011;28280;49.646;14.130;2022-11-03T12:28:00;3.10;;;2.10;;
42666;SDS011;28280;49.646;14.130;2022-11-03T12:33:32;5.93;;;2.33;;
42666;SDS011;28280;49.646;14.130;2022-11-03T12:39:03;4.45;;;2.15;;
42666;SDS011;28280;49.646;14.130;2022-11-03T12:44:34;3.67;;;2.33;;
42666;SDS011;28280;49.646;14.130;2022-11-03T12:50:12;4.95;;;2.22;;
42666;SDS011;28280;49.646;14.130;2022-11-03T12:55:43;4.22;;;2.35;;
42666;SDS011;28280;49.646;14.130;2022-11-03T13:01:15;3.83;;;2.20;;
42666;SDS011;28280;49.646;14.130;2022-11-03T13:06:46;4.47;;;2.88;;
42666;SDS011;28280;49.646;14.130;2022-11-03T13:12:17;4.00;;;2.13;;
42666;SDS011;28280;49.646;14.130;2022-11-03T13:18:01;3.47;;;2.57;;
42666;SDS011;28280;49.646;14.130;2022-11-03T13:23:47;3.45;;;2.28;;
42666;SDS011;28280;49.646;14.130;2022-11-03T13:29:19;3.28;;;2.05;;
42666;SDS011;28280;49.646;14.130;2022-11-03T13:34:50;4.00;;;2.35;;
42666;SDS011;28280;49.646;14.130;2022-11-03T13:40:21;3.10;;;1.98;;
42666;SDS011;28280;49.646;14.130;2022-11-03T13:46:12;5.05;;;2.25;;
42666;SDS011;28280;49.646;14.130;2022-11-03T13:51:43;4.00;;;2.22;;
42666;SDS011;28280;49.646;14.130;2022-11-03T13:57:14;3.05;;;2.03;;
42666;SDS011;28280;49.646;14.130;2022-11-03T14:03:05;4.43;;;2.20;;
42666;SDS011;28280;49.646;14.130;2022-11-03T14:08:57;4.18;;;2.30;;
42666;SDS011;28280;49.646;14.130;2022-11-03T14:14:28;3.85;;;1.83;;
42666;SDS011;28280;49.646;14.130;2022-11-03T14:19:59;3.25;;;2.17;;
42666;SDS011;28280;49.646;14.130;2022-11-03T14:25:37;5.05;;;2.05;;
42666;SDS011;28280;49.646;14.130;2022-11-03T14:31:09;4.72;;;2.45;;
42666;SDS011;28280;49.646;14.130;2022-11-03T14:36:40;3.80;;;2.42;;
42666;SDS011;28280;49.646;14.130;2022-11-03T14:42:12;3.78;;;2.10;;
42666;SDS011;28280;49.646;14.130;2022-11-03T14:47:47;5.00;;;2.35;;
42666;SDS011;28280;49.646;14.130;2022-11-03T14:53:18;5.88;;;2.67;;
42666;SDS011;28280;49.646;14.130;2022-11-03T14:58:50;4.10;;;2.17;;
42666;SDS011;28280;49.646;14.130;2022-11-03T15:04:21;4.72;;;2.42;;
42666;SDS011;28280;49.646;14.130;2022-11-03T15:09:53;3.83;;;2.15;;
42666;SDS011;28280;49.646;14.130;2022-11-03T15:15:24;3.58;;;2.25;;
42666;SDS011;28280;49.646;14.130;2022-11-03T15:20:56;3.60;;;2.22;;
42666;SDS011;28280;49.646;14.130;2022-11-03T15:26:27;4.75;;;2.17;;
42666;SDS011;28280;49.646;14.130;2022-11-03T15:31:58;3.38;;;2.13;;
42666;SDS011;28280;49.646;14.130;2022-11-03T15:37:30;3.83;;;2.47;;
42666;SDS011;28280;49.646;14.130;2022-11-03T15:43:01;2.95;;;2.13;;
42666;SDS011;28280;49.646;14.130;2022-11-03T15:48:33;4.38;;;2.03;;
42666;SDS011;28280;49.646;14.130;2022-11-03T15:54:04;5.75;;;2.17;;
42666;SDS011;28280;49.646;14.130;2022-11-03T15:59:35;3.42;;;2.20;;
42666;SDS011;28280;49.646;14.130;2022-11-03T16:05:07;3.42;;;2.20;;
42666;SDS011;28280;49.646;14.130;2022-11-03T16:10:38;3.08;;;2.30;;
42666;SDS011;28280;49.646;14.130;2022-11-03T16:16:19;4.43;;;2.25;;
42666;SDS011;28280;49.646;14.130;2022-11-03T16:21:50;4.57;;;2.25;;
42666;SDS011;28280;49.646;14.130;2022-11-03T16:27:21;3.80;;;2.30;;
42666;SDS011;28280;49.646;14.130;2022-11-03T16:32:52;3.20;;;2.47;;
42666;SDS011;28280;49.646;14.130;2022-11-03T16:38:23;4.25;;;2.10;;
42666;SDS011;28280;49.646;14.130;2022-11-03T16:43:55;3.35;;;1.98;;
42666;SDS011;28280;49.646;14.130;2022-11-03T16:49:26;5.80;;;2.22;;
42666;SDS011;28280;49.646;14.130;2022-11-03T16:54:57;3.45;;;2.35;;
42666;SDS011;28280;49.646;14.130;2022-11-03T17:00:29;5.30;;;2.75;;
42666;SDS011;28280;49.646;14.130;2022-11-03T17:06:01;3.67;;;2.40;;
42666;SDS011;28280;49.646;14.130;2022-11-03T17:11:32;4.53;;;2.17;;
42666;SDS011;28280;49.646;14.130;2022-11-03T17:17:06;4.15;;;2.60;;
42666;SDS011;28280;49.646;14.130;2022-11-03T17:22:37;2.95;;;2.20;;
42666;SDS011;28280;49.646;14.130;2022-11-03T17:28:08;3.10;;;2.00;;
42666;SDS011;28280;49.646;14.130;2022-11-03T17:33:40;4.82;;;2.63;;
42666;SDS011;28280;49.646;14.130;2022-11-03T17:39:13;3.85;;;2.38;;
42666;SDS011;28280;49.646;14.130;2022-11-03T17:44:47;4.03;;;2.17;;
42666;SDS011;28280;49.646;14.130;2022-11-03T17:50:20;3.65;;;2.40;;
42666;SDS011;28280;49.646;14.130;2022-11-03T17:55:53;4.32;;;2.50;;
42666;SDS011;28280;49.646;14.130;2022-11-03T18:01:44;4.50;;;2.65;;
42666;SDS011;28280;49.646;14.130;2022-11-03T18:07:19;4.28;;;2.72;;
42666;SDS011;28280;49.646;14.130;2022-11-03T18:18:49;4.82;;;2.80;;
42666;SDS011;28280;49.646;14.130;2022-11-03T18:24:20;4.80;;;2.65;;
42666;SDS011;28280;49.646;14.130;2022-11-03T18:29:51;5.63;;;2.78;;
42666;SDS011;28280;49.646;14.130;2022-11-03T18:35:23;5.70;;;3.08;;
42666;SDS011;28280;49.646;14.130;2022-11-03T18:40:58;3.78;;;2.55;;
42666;SDS011;28280;49.646;14.130;2022-11-03T18:46:28;3.53;;;2.60;;
42666;SDS011;28280;49.646;14.130;2022-11-03T18:52:01;4.75;;;2.60;;
42666;SDS011;28280;49.646;14.130;2022-11-03T18:57:34;4.60;;;3.08;;
42666;SDS011;28280;49.646;14.130;2022-11-03T19:03:11;3.92;;;2.83;;
42666;SDS011;28280;49.646;14.130;2022-11-03T19:08:46;5.57;;;2.83;;
42666;SDS011;28280;49.646;14.130;2022-11-03T19:14:21;3.92;;;2.95;;
42666;SDS011;28280;49.646;14.130;2022-11-03T19:19:56;5.45;;;2.70;;
42666;SDS011;28280;49.646;14.130;2022-11-03T19:25:27;5.40;;;2.85;;
42666;SDS011;28280;49.646;14.130;2022-11-03T19:30:58;4.72;;;2.70;;
42666;SDS011;28280;49.646;14.130;2022-11-03T19:36:29;6.32;;;2.78;;
42666;SDS011;28280;49.646;14.130;2022-11-03T19:42:14;5.88;;;2.92;;
42666;SDS011;28280;49.646;14.130;2022-11-03T19:48:00;6.40;;;3.08;;
42666;SDS011;28280;49.646;14.130;2022-11-03T19:53:52;6.50;;;3.28;;
42666;SDS011;28280;49.646;14.130;2022-11-03T19:59:24;4.25;;;2.75;;
42666;SDS011;28280;49.646;14.130;2022-11-03T20:04:56;5.75;;;3.25;;
42666;SDS011;28280;49.646;14.130;2022-11-03T20:10:27;5.80;;;2.83;;
42666;SDS011;28280;49.646;14.130;2022-11-03T20:16:08;4.95;;;3.00;;
42666;SDS011;28280;49.646;14.130;2022-11-03T20:21:44;5.85;;;3.20;;
42666;SDS011;28280;49.646;14.130;2022-11-03T20:27:16;6.53;;;3.03;;
42666;SDS011;28280;49.646;14.130;2022-11-03T20:32:49;5.63;;;2.93;;
42666;SDS011;28280;49.646;14.130;2022-11-03T20:38:20;5.20;;;3.00;;
42666;SDS011;28280;49.646;14.130;2022-11-03T20:43:52;5.47;;;3.20;;
42666;SDS011;28280;49.646;14.130;2022-11-03T20:49:25;7.35;;;3.70;;
42666;SDS011;28280;49.646;14.130;2022-11-03T20:54:56;4.05;;;2.85;;
42666;SDS011;28280;49.646;14.130;2022-11-03T21:00:27;5.90;;;3.53;;
42666;SDS011;28280;49.646;14.130;2022-11-03T21:05:58;5.75;;;3.40;;
42666;SDS011;28280;49.646;14.130;2022-11-03T21:11:32;6.28;;;3.20;;
42666;SDS011;28280;49.646;14.130;2022-11-03T21:17:08;6.05;;;3.10;;
42666;SDS011;28280;49.646;14.130;2022-11-03T21:23:01;5.65;;;3.22;;
42666;SDS011;28280;49.646;14.130;2022-11-03T21:28:39;4.60;;;3.03;;
42666;SDS011;28280;49.646;14.130;2022-11-03T21:34:10;5.25;;;3.13;;
42666;SDS011;28280;49.646;14.130;2022-11-03T21:39:44;5.75;;;3.05;;
42666;SDS011;28280;49.646;14.130;2022-11-03T21:45:15;4.78;;;3.10;;
42666;SDS011;28280;49.646;14.130;2022-11-03T21:50:48;4.73;;;3.07;;
42666;SDS011;28280;49.646;14.130;2022-11-03T21:56:19;4.70;;;2.95;;
42666;SDS011;28280;49.646;14.130;2022-11-03T22:01:50;4.60;;;3.15;;
42666;SDS011;28280;49.646;14.130;2022-11-03T22:07:25;4.15;;;2.97;;
42666;SDS011;28280;49.646;14.130;2022-11-03T22:12:56;4.28;;;3.05;;
42666;SDS011;28280;49.646;14.130;2022-11-03T22:18:27;5.72;;;3.13;;
42666;SDS011;28280;49.646;14.130;2022-11-03T22:23:58;5.68;;;2.95;;
42666;SDS011;28280;49.646;14.130;2022-11-03T22:29:48;4.60;;;2.90;;
42666;SDS011;28280;49.646;14.130;2022-11-03T22:35:38;5.45;;;2.78;;
42666;SDS011;28280;49.646;14.130;2022-11-03T22:41:28;6.18;;;3.30;;
42666;SDS011;28280;49.646;14.130;2022-11-03T22:47:18;6.15;;;3.55;;
42666;SDS011;28280;49.646;14.130;2022-11-03T22:52:49;4.68;;;3.17;;
42666;SDS011;28280;49.646;14.130;2022-11-03T22:58:21;10.60;;;3.67;;
42666;SDS011;28280;49.646;14.130;2022-11-03T23:04:00;5.85;;;3.20;;
42666;SDS011;28280;49.646;14.130;2022-11-03T23:09:31;5.15;;;3.22;;
42666;SDS011;28280;49.646;14.130;2022-11-03T23:15:02;4.82;;;3.28;;
42666;SDS011;28280;49.646;14.130;2022-11-03T23:20:54;8.10;;;3.75;;
42666;SDS011;28280;49.646;14.130;2022-11-03T23:26:38;5.00;;;3.45;;
42666;SDS011;28280;49.646;14.130;2022-11-03T23:32:09;5.70;;;3.38;;
42666;SDS011;28280;49.646;14.130;2022-11-03T23:37:40;5.55;;;3.42;;
42666;SDS011;28280;49.646;14.130;2022-11-03T23:43:11;5.60;;;3.58;;
42666;SDS011;28280;49.646;14.130;2022-11-03T23:48:43;6.65;;;4.07;;
42666;SDS011;28280;49.646;14.130;2022-11-03T23:54:17;5.00;;;3.70;;
42666;SDS011;28280;49.646;14.130;2022-11-03T23:59:48;6.95;;;3.85;;
